Chapleau Airport
CYLD : now visible

Airfield :











YOU CAN JOIN US ON...

 
LOGIN :

Register | Disclaimer

   EN    FR    IT 

 









Legend :    VFR   Marginal VFR   IFR   Intensive IFR   Very Intensive IFR
Visi :
Ceiling :
>= 8 km
>= 3000ft
5 to 8 km
1000 to 3000 ft
1500m to 5 km
500 to 1000 ft
800 to 1500m
200 to 500 ft
< 800m
< 200 ft
Symbols :   Thunderstorms  Fog  Heavy snow  Heavy precipitations  Wind > 20 kt






- Airport Elevation : 1470 ft
- IATA code : YLD


CYLD - Chapleau

CURRENT METAR :
  • 211629Z 18003KT 15SM OVC007 01/M00 A2992 RMK SC8 SLP156

EXPIRED METARs :
  • 211600Z 16003KT 110V190 15SM -SN OVC005 01/M01 A2991 RMK SC8 SLP153
  • 211500Z VRB02KT 15SM -SN SCT005 OVC023 01/M01 A2991 RMK SF4SC4 SLP152
  • 211400Z 08003KT 030V100 12SM -SN OVC010 M00/M01 A2991 RMK SC8 SLP153

TAF TAF CYLD
Valid from the 21 at 14:00 until the 22 at 01:00 UTC


211338Z 2114/2201 07008KT 2SM -SN OVC006
TEMPO 2114/2116 6SM -SNRA BR SCT006 OVC015
FM211600 VRB03KT 4SM -SNRA BR OVC007
TEMPO 2116/2118 P6SM NSW SCT007 OVC015
FM211800 23008KT P6SM OVC015
TEMPO 2118/2201 5SM -SHRA BR OVC008 RMK NXT FCST BY 212000Z
CZYZ FIR / North America



MET'MAP, your aeronautical weather chart ! - Copyright ORBIFLY December 2007 - Disclaimer

ORBIFLY MET'MAP TEAM :

Programming & Development : Alexandra Zaïnal
Concept & original design : Baudouin d'Aumeries
Assistance for programming : Marc-Olivier Méhu
Technical & hardware support : Manuel Goepfert

Contact : metmap@orbifly.com




SOURCES & CREDITS :

   NOAA       Earth
Advisory